Terminal Aerodrome Forecast
Issued by NWS

Home | Current Version | Previous Version | Text Only | Print | Product List | Glossary On
Versions: 1 2 3 4 5 6 7 8 9 10 11 12 13 14 15 16 17 18
000
FTUS44 KSJT 211700
TAFBBD
TAF
KBBD 211739Z 2118/2218 19011KT P6SM BKN012
     FM212000 19011KT P6SM SCT025
     FM221000 20010KT P6SM BKN012=

USA.gov is the U.S. government's official web portal to all federal, state and local government web resources and services.